sensor_id;sensor_type;location;lat;lon;timestamp;temperature;humidity
69208;SHT31;56321;47.662;8.878;2022-10-22T00:01:33;15.43;82.86
69208;SHT31;56321;47.662;8.878;2022-10-22T00:03:58;15.43;82.89
69208;SHT31;56321;47.662;8.878;2022-10-22T00:06:24;15.40;82.97
69208;SHT31;56321;47.662;8.878;2022-10-22T00:08:49;15.41;82.84
69208;SHT31;56321;47.662;8.878;2022-10-22T00:11:17;15.39;82.78
69208;SHT31;56321;47.662;8.878;2022-10-22T00:13:43;15.37;82.84
69208;SHT31;56321;47.662;8.878;2022-10-22T00:16:08;15.40;82.83
69208;SHT31;56321;47.662;8.878;2022-10-22T00:18:35;15.33;82.82
69208;SHT31;56321;47.662;8.878;2022-10-22T00:21:01;15.33;82.82
69208;SHT31;56321;47.662;8.878;2022-10-22T00:23:26;15.30;82.98
69208;SHT31;56321;47.662;8.878;2022-10-22T00:25:52;15.32;83.01
69208;SHT31;56321;47.662;8.878;2022-10-22T00:28:18;15.30;83.02
69208;SHT31;56321;47.662;8.878;2022-10-22T00:30:43;15.30;83.02
69208;SHT31;56321;47.662;8.878;2022-10-22T00:33:08;15.27;83.16
69208;SHT31;56321;47.662;8.878;2022-10-22T00:35:34;15.26;83.22
69208;SHT31;56321;47.662;8.878;2022-10-22T00:38:00;15.29;83.16
69208;SHT31;56321;47.662;8.878;2022-10-22T00:40:25;15.26;83.15
69208;SHT31;56321;47.662;8.878;2022-10-22T00:42:50;15.27;83.08
69208;SHT31;56321;47.662;8.878;2022-10-22T00:45:19;15.27;83.09
69208;SHT31;56321;47.662;8.878;2022-10-22T00:47:50;15.27;83.18
69208;SHT31;56321;47.662;8.878;2022-10-22T00:52:59;15.24;83.13
69208;SHT31;56321;47.662;8.878;2022-10-22T00:55:25;15.27;83.08
69208;SHT31;56321;47.662;8.878;2022-10-22T00:57:53;15.26;83.18
69208;SHT31;56321;47.662;8.878;2022-10-22T01:00:20;15.26;83.18
69208;SHT31;56321;47.662;8.878;2022-10-22T01:02:47;15.27;83.17
69208;SHT31;56321;47.662;8.878;2022-10-22T01:05:13;15.27;83.18
69208;SHT31;56321;47.662;8.878;2022-10-22T01:07:50;15.24;83.22
69208;SHT31;56321;47.662;8.878;2022-10-22T01:15:58;15.22;83.16
69208;SHT31;56321;47.662;8.878;2022-10-22T01:18:51;15.18;83.27
69208;SHT31;56321;47.662;8.878;2022-10-22T01:21:24;15.20;83.28
69208;SHT31;56321;47.662;8.878;2022-10-22T01:27:12;15.19;83.05
69208;SHT31;56321;47.662;8.878;2022-10-22T01:29:42;15.18;83.16
69208;SHT31;56321;47.662;8.878;2022-10-22T01:32:14;15.19;83.26
69208;SHT31;56321;47.662;8.878;2022-10-22T01:34:43;15.18;83.17
69208;SHT31;56321;47.662;8.878;2022-10-22T01:37:13;15.18;82.96
69208;SHT31;56321;47.662;8.878;2022-10-22T01:39:39;15.13;82.96
69208;SHT31;56321;47.662;8.878;2022-10-22T01:42:06;15.16;82.97
69208;SHT31;56321;47.662;8.878;2022-10-22T01:44:33;15.14;83.05
69208;SHT31;56321;47.662;8.878;2022-10-22T01:52:27;15.14;82.99
69208;SHT31;56321;47.662;8.878;2022-10-22T02:00:37;15.13;83.12
69208;SHT31;56321;47.662;8.878;2022-10-22T02:03:09;15.14;83.16
69208;SHT31;56321;47.662;8.878;2022-10-22T02:05:54;15.14;83.36
69208;SHT31;56321;47.662;8.878;2022-10-22T02:08:23;15.18;83.26
69208;SHT31;56321;47.662;8.878;2022-10-22T02:10:49;15.19;83.15
69208;SHT31;56321;47.662;8.878;2022-10-22T02:13:20;15.19;83.18
69208;SHT31;56321;47.662;8.878;2022-10-22T02:15:48;15.23;83.22
69208;SHT31;56321;47.662;8.878;2022-10-22T02:18:15;15.22;83.14
69208;SHT31;56321;47.662;8.878;2022-10-22T02:20:41;15.22;83.07
69208;SHT31;56321;47.662;8.878;2022-10-22T02:23:07;15.22;83.24
69208;SHT31;56321;47.662;8.878;2022-10-22T02:25:35;15.22;83.31
69208;SHT31;56321;47.662;8.878;2022-10-22T02:28:18;15.22;83.19
69208;SHT31;56321;47.662;8.878;2022-10-22T02:30:51;15.23;83.00
69208;SHT31;56321;47.662;8.878;2022-10-22T02:33:22;15.20;82.99
69208;SHT31;56321;47.662;8.878;2022-10-22T02:35:51;15.23;83.17
69208;SHT31;56321;47.662;8.878;2022-10-22T02:38:17;15.20;83.20
69208;SHT31;56321;47.662;8.878;2022-10-22T02:40:43;15.24;83.20
69208;SHT31;56321;47.662;8.878;2022-10-22T02:43:08;15.22;83.11
69208;SHT31;56321;47.662;8.878;2022-10-22T02:45:34;15.22;83.06
69208;SHT31;56321;47.662;8.878;2022-10-22T02:48:00;15.22;83.06
69208;SHT31;56321;47.662;8.878;2022-10-22T02:50:25;15.20;83.02
69208;SHT31;56321;47.662;8.878;2022-10-22T02:52:50;15.23;83.00
69208;SHT31;56321;47.662;8.878;2022-10-22T02:55:16;15.23;82.98
69208;SHT31;56321;47.662;8.878;2022-10-22T02:57:41;15.24;83.02
69208;SHT31;56321;47.662;8.878;2022-10-22T03:00:08;15.23;82.98
69208;SHT31;56321;47.662;8.878;2022-10-22T03:02:33;15.24;82.88
69208;SHT31;56321;47.662;8.878;2022-10-22T03:04:59;15.22;82.89
69208;SHT31;56321;47.662;8.878;2022-10-22T03:07:24;15.20;82.87
69208;SHT31;56321;47.662;8.878;2022-10-22T03:09:49;15.20;82.89
69208;SHT31;56321;47.662;8.878;2022-10-22T03:12:15;15.23;82.89
69208;SHT31;56321;47.662;8.878;2022-10-22T03:14:40;15.23;82.96
69208;SHT31;56321;47.662;8.878;2022-10-22T03:17:05;15.20;82.89
69208;SHT31;56321;47.662;8.878;2022-10-22T03:19:31;15.20;82.81
69208;SHT31;56321;47.662;8.878;2022-10-22T03:22:00;15.22;82.69
69208;SHT31;56321;47.662;8.878;2022-10-22T03:24:29;15.20;82.92
69208;SHT31;56321;47.662;8.878;2022-10-22T03:26:56;15.20;82.73
69208;SHT31;56321;47.662;8.878;2022-10-22T03:29:22;15.20;82.82
69208;SHT31;56321;47.662;8.878;2022-10-22T03:31:51;15.19;82.71
69208;SHT31;56321;47.662;8.878;2022-10-22T03:34:16;15.20;82.78
69208;SHT31;56321;47.662;8.878;2022-10-22T03:36:42;15.23;82.89
69208;SHT31;56321;47.662;8.878;2022-10-22T03:39:08;15.22;82.97
69208;SHT31;56321;47.662;8.878;2022-10-22T03:41:36;15.20;82.98
69208;SHT31;56321;47.662;8.878;2022-10-22T03:44:03;15.22;83.04
69208;SHT31;56321;47.662;8.878;2022-10-22T03:46:28;15.22;83.11
69208;SHT31;56321;47.662;8.878;2022-10-22T03:48:54;15.22;83.07
69208;SHT31;56321;47.662;8.878;2022-10-22T03:51:19;15.22;83.07
69208;SHT31;56321;47.662;8.878;2022-10-22T03:53:44;15.19;82.92
69208;SHT31;56321;47.662;8.878;2022-10-22T03:56:11;15.20;82.85
69208;SHT31;56321;47.662;8.878;2022-10-22T03:58:38;15.18;82.79
69208;SHT31;56321;47.662;8.878;2022-10-22T04:01:09;15.20;82.90
69208;SHT31;56321;47.662;8.878;2022-10-22T04:03:34;15.20;82.95
69208;SHT31;56321;47.662;8.878;2022-10-22T04:06:06;15.20;82.67
69208;SHT31;56321;47.662;8.878;2022-10-22T04:08:31;15.20;82.85
69208;SHT31;56321;47.662;8.878;2022-10-22T04:10:57;15.18;82.84
69208;SHT31;56321;47.662;8.878;2022-10-22T04:13:22;15.18;82.86
69208;SHT31;56321;47.662;8.878;2022-10-22T04:15:47;15.19;82.93
69208;SHT31;56321;47.662;8.878;2022-10-22T04:18:13;15.18;82.93
69208;SHT31;56321;47.662;8.878;2022-10-22T04:20:40;15.18;82.96
69208;SHT31;56321;47.662;8.878;2022-10-22T04:23:05;15.20;83.09
69208;SHT31;56321;47.662;8.878;2022-10-22T04:25:31;15.20;83.05
69208;SHT31;56321;47.662;8.878;2022-10-22T04:27:56;15.20;83.14
69208;SHT31;56321;47.662;8.878;2022-10-22T04:30:21;15.18;83.14
69208;SHT31;56321;47.662;8.878;2022-10-22T04:32:46;15.19;83.01
69208;SHT31;56321;47.662;8.878;2022-10-22T04:35:12;15.20;83.04
69208;SHT31;56321;47.662;8.878;2022-10-22T04:37:37;15.18;83.05
69208;SHT31;56321;47.662;8.878;2022-10-22T04:40:03;15.19;82.91
69208;SHT31;56321;47.662;8.878;2022-10-22T04:42:29;15.20;82.97
69208;SHT31;56321;47.662;8.878;2022-10-22T04:44:54;15.19;83.01
69208;SHT31;56321;47.662;8.878;2022-10-22T04:47:19;15.20;83.08
69208;SHT31;56321;47.662;8.878;2022-10-22T04:49:45;15.19;83.07
69208;SHT31;56321;47.662;8.878;2022-10-22T04:52:10;15.20;83.06
69208;SHT31;56321;47.662;8.878;2022-10-22T04:54:36;15.20;83.03
69208;SHT31;56321;47.662;8.878;2022-10-22T04:57:02;15.18;83.03
69208;SHT31;56321;47.662;8.878;2022-10-22T04:59:27;15.18;83.02
69208;SHT31;56321;47.662;8.878;2022-10-22T05:01:53;15.19;83.11
69208;SHT31;56321;47.662;8.878;2022-10-22T05:04:18;15.19;83.11
69208;SHT31;56321;47.662;8.878;2022-10-22T05:06:44;15.19;83.10
69208;SHT31;56321;47.662;8.878;2022-10-22T05:09:13;15.19;83.12
69208;SHT31;56321;47.662;8.878;2022-10-22T05:11:40;15.20;83.10
69208;SHT31;56321;47.662;8.878;2022-10-22T05:14:07;15.18;83.19
69208;SHT31;56321;47.662;8.878;2022-10-22T05:16:34;15.19;83.32
69208;SHT31;56321;47.662;8.878;2022-10-22T05:19:01;15.18;83.23
69208;SHT31;56321;47.662;8.878;2022-10-22T05:21:27;15.19;83.26
69208;SHT31;56321;47.662;8.878;2022-10-22T05:23:53;15.19;83.26
69208;SHT31;56321;47.662;8.878;2022-10-22T05:26:20;15.19;83.30
69208;SHT31;56321;47.662;8.878;2022-10-22T05:28:46;15.18;83.45
69208;SHT31;56321;47.662;8.878;2022-10-22T05:31:13;15.19;83.45
69208;SHT31;56321;47.662;8.878;2022-10-22T05:33:38;15.19;83.52
69208;SHT31;56321;47.662;8.878;2022-10-22T05:36:05;15.19;83.46
69208;SHT31;56321;47.662;8.878;2022-10-22T05:38:31;15.19;83.45
69208;SHT31;56321;47.662;8.878;2022-10-22T05:41:05;15.18;83.41
69208;SHT31;56321;47.662;8.878;2022-10-22T05:43:31;15.16;83.42
69208;SHT31;56321;47.662;8.878;2022-10-22T05:46:05;15.18;83.49
69208;SHT31;56321;47.662;8.878;2022-10-22T05:48:31;15.14;83.43
69208;SHT31;56321;47.662;8.878;2022-10-22T05:50:56;15.16;83.49
69208;SHT31;56321;47.662;8.878;2022-10-22T05:53:22;15.16;83.37
69208;SHT31;56321;47.662;8.878;2022-10-22T05:55:47;15.14;83.36
69208;SHT31;56321;47.662;8.878;2022-10-22T05:58:13;15.16;83.46
69208;SHT31;56321;47.662;8.878;2022-10-22T06:00:38;15.16;83.57
69208;SHT31;56321;47.662;8.878;2022-10-22T06:03:04;15.13;83.58
69208;SHT31;56321;47.662;8.878;2022-10-22T06:05:29;15.14;83.66
69208;SHT31;56321;47.662;8.878;2022-10-22T06:07:55;15.14;83.63
69208;SHT31;56321;47.662;8.878;2022-10-22T06:10:21;15.10;83.58
69208;SHT31;56321;47.662;8.878;2022-10-22T06:12:47;15.12;83.61
69208;SHT31;56321;47.662;8.878;2022-10-22T06:15:15;15.10;83.58
69208;SHT31;56321;47.662;8.878;2022-10-22T06:17:43;15.09;83.62
69208;SHT31;56321;47.662;8.878;2022-10-22T06:20:09;15.10;83.45
69208;SHT31;56321;47.662;8.878;2022-10-22T06:22:35;15.09;83.44
69208;SHT31;56321;47.662;8.878;2022-10-22T06:25:00;15.07;83.43
69208;SHT31;56321;47.662;8.878;2022-10-22T06:27:25;15.10;83.56
69208;SHT31;56321;47.662;8.878;2022-10-22T06:29:51;15.10;83.58
69208;SHT31;56321;47.662;8.878;2022-10-22T06:32:16;15.09;83.61
69208;SHT31;56321;47.662;8.878;2022-10-22T06:34:41;15.09;83.66
69208;SHT31;56321;47.662;8.878;2022-10-22T06:37:08;15.10;83.75
69208;SHT31;56321;47.662;8.878;2022-10-22T06:39:34;15.09;83.72
69208;SHT31;56321;47.662;8.878;2022-10-22T06:41:59;15.07;83.70
69208;SHT31;56321;47.662;8.878;2022-10-22T06:44:24;15.09;83.79
69208;SHT31;56321;47.662;8.878;2022-10-22T06:46:50;15.09;83.86
69208;SHT31;56321;47.662;8.878;2022-10-22T06:49:16;15.10;83.89
69208;SHT31;56321;47.662;8.878;2022-10-22T06:51:42;15.12;83.90
69208;SHT31;56321;47.662;8.878;2022-10-22T06:54:07;15.10;83.89
69208;SHT31;56321;47.662;8.878;2022-10-22T06:56:33;15.12;83.94
69208;SHT31;56321;47.662;8.878;2022-10-22T06:58:58;15.13;83.89
69208;SHT31;56321;47.662;8.878;2022-10-22T07:01:27;15.14;83.95
69208;SHT31;56321;47.662;8.878;2022-10-22T07:03:53;15.19;83.94
69208;SHT31;56321;47.662;8.878;2022-10-22T07:06:20;15.19;83.96
69208;SHT31;56321;47.662;8.878;2022-10-22T07:08:46;15.22;83.94
69208;SHT31;56321;47.662;8.878;2022-10-22T07:11:19;15.26;83.88
69208;SHT31;56321;47.662;8.878;2022-10-22T07:13:45;15.27;83.83
69208;SHT31;56321;47.662;8.878;2022-10-22T07:16:11;15.32;83.89
69208;SHT31;56321;47.662;8.878;2022-10-22T07:18:37;15.37;84.07
69208;SHT31;56321;47.662;8.878;2022-10-22T07:21:04;15.41;84.15
69208;SHT31;56321;47.662;8.878;2022-10-22T07:23:30;15.47;84.12
69208;SHT31;56321;47.662;8.878;2022-10-22T07:25:56;15.50;84.04
69208;SHT31;56321;47.662;8.878;2022-10-22T07:28:21;15.55;83.92
69208;SHT31;56321;47.662;8.878;2022-10-22T07:30:48;15.61;83.94
69208;SHT31;56321;47.662;8.878;2022-10-22T07:33:13;15.65;83.86
69208;SHT31;56321;47.662;8.878;2022-10-22T07:35:39;15.70;83.85
69208;SHT31;56321;47.662;8.878;2022-10-22T07:38:06;15.78;83.81
69208;SHT31;56321;47.662;8.878;2022-10-22T07:40:31;16.02;83.95
69208;SHT31;56321;47.662;8.878;2022-10-22T07:42:57;16.42;84.13
69208;SHT31;56321;47.662;8.878;2022-10-22T07:45:22;16.94;83.02
69208;SHT31;56321;47.662;8.878;2022-10-22T07:47:48;17.46;82.12
69208;SHT31;56321;47.662;8.878;2022-10-22T07:50:14;18.00;80.97
69208;SHT31;56321;47.662;8.878;2022-10-22T07:52:39;18.29;79.42
69208;SHT31;56321;47.662;8.878;2022-10-22T07:55:05;18.63;78.85
69208;SHT31;56321;47.662;8.878;2022-10-22T07:57:31;18.73;78.25
69208;SHT31;56321;47.662;8.878;2022-10-22T07:59:57;18.67;77.49
69208;SHT31;56321;47.662;8.878;2022-10-22T08:02:24;18.49;77.40
69208;SHT31;56321;47.662;8.878;2022-10-22T08:04:49;18.25;77.64
69208;SHT31;56321;47.662;8.878;2022-10-22T08:07:16;18.56;78.14
69208;SHT31;56321;47.662;8.878;2022-10-22T08:09:41;19.25;77.56
69208;SHT31;56321;47.662;8.878;2022-10-22T08:12:06;20.00;76.02
69208;SHT31;56321;47.662;8.878;2022-10-22T08:14:32;20.38;74.12
69208;SHT31;56321;47.662;8.878;2022-10-22T08:16:57;20.48;72.84
69208;SHT31;56321;47.662;8.878;2022-10-22T08:19:22;20.28;72.75
69208;SHT31;56321;47.662;8.878;2022-10-22T08:21:48;19.93;73.14
69208;SHT31;56321;47.662;8.878;2022-10-22T08:24:13;19.61;73.59
69208;SHT31;56321;47.662;8.878;2022-10-22T08:26:39;19.39;74.30
69208;SHT31;56321;47.662;8.878;2022-10-22T08:29:05;19.52;74.82
69208;SHT31;56321;47.662;8.878;2022-10-22T08:31:30;19.87;74.04
69208;SHT31;56321;47.662;8.878;2022-10-22T08:33:56;20.63;73.50
69208;SHT31;56321;47.662;8.878;2022-10-22T08:36:21;21.50;71.63
69208;SHT31;56321;47.662;8.878;2022-10-22T08:38:46;22.23;69.67
69208;SHT31;56321;47.662;8.878;2022-10-22T08:41:15;22.95;67.50
69208;SHT31;56321;47.662;8.878;2022-10-22T08:44:23;23.70;65.39
69208;SHT31;56321;47.662;8.878;2022-10-22T08:49:28;25.31;59.04
69208;SHT31;56321;47.662;8.878;2022-10-22T08:51:56;26.10;57.12
69208;SHT31;56321;47.662;8.878;2022-10-22T08:54:50;26.91;54.04
69208;SHT31;56321;47.662;8.878;2022-10-22T09:07:48;27.60;50.38
69208;SHT31;56321;47.662;8.878;2022-10-22T09:10:18;27.63;49.96
69208;SHT31;56321;47.662;8.878;2022-10-22T09:12:46;27.76;50.51
69208;SHT31;56321;47.662;8.878;2022-10-22T09:15:18;27.20;49.34
69208;SHT31;56321;47.662;8.878;2022-10-22T09:17:56;26.44;51.19
69208;SHT31;56321;47.662;8.878;2022-10-22T09:20:26;25.85;52.94
69208;SHT31;56321;47.662;8.878;2022-10-22T09:23:11;25.11;52.81
69208;SHT31;56321;47.662;8.878;2022-10-22T09:25:44;25.27;54.76
69208;SHT31;56321;47.662;8.878;2022-10-22T09:28:11;25.09;54.88
69208;SHT31;56321;47.662;8.878;2022-10-22T09:30:37;25.37;55.32
69208;SHT31;56321;47.662;8.878;2022-10-22T09:36:00;26.33;53.17
69208;SHT31;56321;47.662;8.878;2022-10-22T09:38:35;26.82;52.89
69208;SHT31;56321;47.662;8.878;2022-10-22T09:41:03;27.35;51.27
69208;SHT31;56321;47.662;8.878;2022-10-22T09:43:29;28.02;51.14
69208;SHT31;56321;47.662;8.878;2022-10-22T09:46:00;28.83;48.48
69208;SHT31;56321;47.662;8.878;2022-10-22T09:48:36;29.42;45.78
69208;SHT31;56321;47.662;8.878;2022-10-22T09:51:22;29.56;44.15
69208;SHT31;56321;47.662;8.878;2022-10-22T09:54:00;28.70;46.00
69208;SHT31;56321;47.662;8.878;2022-10-22T09:56:35;27.39;47.08
69208;SHT31;56321;47.662;8.878;2022-10-22T09:59:01;26.19;49.87
69208;SHT31;56321;47.662;8.878;2022-10-22T10:01:34;25.13;52.86
69208;SHT31;56321;47.662;8.878;2022-10-22T10:04:09;24.28;54.01
69208;SHT31;56321;47.662;8.878;2022-10-22T10:06:35;23.67;56.17
69208;SHT31;56321;47.662;8.878;2022-10-22T10:09:16;23.25;57.36
69208;SHT31;56321;47.662;8.878;2022-10-22T10:11:47;22.95;58.56
69208;SHT31;56321;47.662;8.878;2022-10-22T10:17:25;22.98;60.37
69208;SHT31;56321;47.662;8.878;2022-10-22T10:23:06;24.99;57.47
69208;SHT31;56321;47.662;8.878;2022-10-22T10:28:40;25.02;54.86
69208;SHT31;56321;47.662;8.878;2022-10-22T10:48:32;28.62;47.44
69208;SHT31;56321;47.662;8.878;2022-10-22T10:51:09;30.00;46.31
69208;SHT31;56321;47.662;8.878;2022-10-22T10:56:38;31.75;41.36
69208;SHT31;56321;47.662;8.878;2022-10-22T10:59:15;31.84;41.70
69208;SHT31;56321;47.662;8.878;2022-10-22T11:01:48;31.61;42.08
69208;SHT31;56321;47.662;8.878;2022-10-22T11:06:45;31.65;42.08
69208;SHT31;56321;47.662;8.878;2022-10-22T11:11:57;31.89;39.32
69208;SHT31;56321;47.662;8.878;2022-10-22T11:17:22;33.07;38.39
69208;SHT31;56321;47.662;8.878;2022-10-22T11:20:13;33.41;36.22
69208;SHT31;56321;47.662;8.878;2022-10-22T11:22:44;33.92;36.72
69208;SHT31;56321;47.662;8.878;2022-10-22T11:30:05;34.43;35.49
69208;SHT31;56321;47.662;8.878;2022-10-22T11:32:33;34.52;35.36
69208;SHT31;56321;47.662;8.878;2022-10-22T11:35:02;34.71;35.88
69208;SHT31;56321;47.662;8.878;2022-10-22T11:37:31;34.89;34.35
69208;SHT31;56321;47.662;8.878;2022-10-22T11:42:37;34.64;34.33
69208;SHT31;56321;47.662;8.878;2022-10-22T11:45:26;34.75;35.67
69208;SHT31;56321;47.662;8.878;2022-10-22T11:50:27;34.66;33.63
69208;SHT31;56321;47.662;8.878;2022-10-22T12:09:05;32.94;35.66
69208;SHT31;56321;47.662;8.878;2022-10-22T12:11:39;32.57;35.90
69208;SHT31;56321;47.662;8.878;2022-10-22T12:14:37;31.71;35.71
69208;SHT31;56321;47.662;8.878;2022-10-22T12:17:15;31.33;37.94
69208;SHT31;56321;47.662;8.878;2022-10-22T12:19:47;31.08;39.68
69208;SHT31;56321;47.662;8.878;2022-10-22T12:22:19;30.82;39.57
69208;SHT31;56321;47.662;8.878;2022-10-22T12:24:51;30.34;39.48
69208;SHT31;56321;47.662;8.878;2022-10-22T12:27:25;29.77;40.75
69208;SHT31;56321;47.662;8.878;2022-10-22T12:29:58;29.25;40.73
69208;SHT31;56321;47.662;8.878;2022-10-22T12:32:38;28.64;41.44
69208;SHT31;56321;47.662;8.878;2022-10-22T12:35:17;28.12;43.01
69208;SHT31;56321;47.662;8.878;2022-10-22T12:37:43;27.74;43.85
69208;SHT31;56321;47.662;8.878;2022-10-22T12:42:59;26.88;44.37
69208;SHT31;56321;47.662;8.878;2022-10-22T12:45:27;26.54;46.63
69208;SHT31;56321;47.662;8.878;2022-10-22T12:48:05;26.19;45.94
69208;SHT31;56321;47.662;8.878;2022-10-22T12:50:35;25.86;46.45
69208;SHT31;56321;47.662;8.878;2022-10-22T12:53:05;25.59;48.09
69208;SHT31;56321;47.662;8.878;2022-10-22T12:55:32;25.38;47.66
69208;SHT31;56321;47.662;8.878;2022-10-22T12:57:58;25.19;49.60
69208;SHT31;56321;47.662;8.878;2022-10-22T13:00:26;25.00;49.88
69208;SHT31;56321;47.662;8.878;2022-10-22T13:02:53;24.83;48.75
69208;SHT31;56321;47.662;8.878;2022-10-22T13:07:49;24.54;50.88
69208;SHT31;56321;47.662;8.878;2022-10-22T13:10:23;24.44;51.66
69208;SHT31;56321;47.662;8.878;2022-10-22T13:12:50;24.35;52.26
69208;SHT31;56321;47.662;8.878;2022-10-22T13:18:04;24.04;53.14
69208;SHT31;56321;47.662;8.878;2022-10-22T13:20:31;23.88;51.42
69208;SHT31;56321;47.662;8.878;2022-10-22T13:22:58;23.74;53.88
69208;SHT31;56321;47.662;8.878;2022-10-22T13:25:34;23.63;53.03
69208;SHT31;56321;47.662;8.878;2022-10-22T13:28:14;23.53;52.71
69208;SHT31;56321;47.662;8.878;2022-10-22T13:30:52;23.42;53.63
69208;SHT31;56321;47.662;8.878;2022-10-22T13:35:47;23.22;53.19
69208;SHT31;56321;47.662;8.878;2022-10-22T13:38:17;23.07;52.95
69208;SHT31;56321;47.662;8.878;2022-10-22T13:40:43;22.97;54.99
69208;SHT31;56321;47.662;8.878;2022-10-22T13:43:08;22.88;53.97
69208;SHT31;56321;47.662;8.878;2022-10-22T13:45:33;22.77;54.18
69208;SHT31;56321;47.662;8.878;2022-10-22T13:47:59;22.70;54.10
69208;SHT31;56321;47.662;8.878;2022-10-22T13:50:24;22.59;56.07
69208;SHT31;56321;47.662;8.878;2022-10-22T13:52:52;22.49;55.74
69208;SHT31;56321;47.662;8.878;2022-10-22T13:55:22;22.39;56.09
69208;SHT31;56321;47.662;8.878;2022-10-22T13:57:53;22.28;56.26
69208;SHT31;56321;47.662;8.878;2022-10-22T14:00:20;22.25;56.96
69208;SHT31;56321;47.662;8.878;2022-10-22T14:02:47;22.22;55.95
69208;SHT31;56321;47.662;8.878;2022-10-22T14:05:14;22.23;56.31
69208;SHT31;56321;47.662;8.878;2022-10-22T14:07:40;22.23;56.11
69208;SHT31;56321;47.662;8.878;2022-10-22T14:10:13;22.22;56.01
69208;SHT31;56321;47.662;8.878;2022-10-22T14:12:39;22.23;56.60
69208;SHT31;56321;47.662;8.878;2022-10-22T14:15:05;22.22;56.34
69208;SHT31;56321;47.662;8.878;2022-10-22T14:17:31;22.16;56.63
69208;SHT31;56321;47.662;8.878;2022-10-22T14:19:56;22.15;56.72
69208;SHT31;56321;47.662;8.878;2022-10-22T14:22:23;22.10;56.05
69208;SHT31;56321;47.662;8.878;2022-10-22T14:24:51;22.08;56.44
69208;SHT31;56321;47.662;8.878;2022-10-22T14:27:16;22.06;57.04
69208;SHT31;56321;47.662;8.878;2022-10-22T14:29:41;22.06;57.25
69208;SHT31;56321;47.662;8.878;2022-10-22T14:32:15;22.01;57.32
69208;SHT31;56321;47.662;8.878;2022-10-22T14:34:41;22.01;56.96
69208;SHT31;56321;47.662;8.878;2022-10-22T14:37:19;21.94;57.75
69208;SHT31;56321;47.662;8.878;2022-10-22T14:39:46;21.92;57.59
69208;SHT31;56321;47.662;8.878;2022-10-22T14:42:16;21.87;57.21
69208;SHT31;56321;47.662;8.878;2022-10-22T14:44:41;21.81;57.48
69208;SHT31;56321;47.662;8.878;2022-10-22T14:47:07;21.77;57.36
69208;SHT31;56321;47.662;8.878;2022-10-22T14:49:32;21.71;57.28
69208;SHT31;56321;47.662;8.878;2022-10-22T14:51:57;21.71;57.40
69208;SHT31;56321;47.662;8.878;2022-10-22T14:54:23;21.65;57.62
69208;SHT31;56321;47.662;8.878;2022-10-22T14:56:48;21.62;58.90
69208;SHT31;56321;47.662;8.878;2022-10-22T14:59:13;21.60;58.17
69208;SHT31;56321;47.662;8.878;2022-10-22T15:01:38;21.54;57.63
69208;SHT31;56321;47.662;8.878;2022-10-22T15:04:06;21.53;58.78
69208;SHT31;56321;47.662;8.878;2022-10-22T15:06:31;21.49;58.03
69208;SHT31;56321;47.662;8.878;2022-10-22T15:08:56;21.40;58.29
69208;SHT31;56321;47.662;8.878;2022-10-22T15:11:22;21.37;58.59
69208;SHT31;56321;47.662;8.878;2022-10-22T15:13:47;21.31;58.51
69208;SHT31;56321;47.662;8.878;2022-10-22T15:16:15;21.24;58.14
69208;SHT31;56321;47.662;8.878;2022-10-22T15:18:40;21.18;58.32
69208;SHT31;56321;47.662;8.878;2022-10-22T15:21:15;21.13;58.25
69208;SHT31;56321;47.662;8.878;2022-10-22T15:23:41;21.09;59.70
69208;SHT31;56321;47.662;8.878;2022-10-22T15:26:08;21.02;60.44
69208;SHT31;56321;47.662;8.878;2022-10-22T15:28:33;20.96;60.44
69208;SHT31;56321;47.662;8.878;2022-10-22T15:30:59;20.89;59.82
69208;SHT31;56321;47.662;8.878;2022-10-22T15:33:26;20.85;60.24
69208;SHT31;56321;47.662;8.878;2022-10-22T15:35:52;20.81;60.03
69208;SHT31;56321;47.662;8.878;2022-10-22T15:38:18;20.72;61.27
69208;SHT31;56321;47.662;8.878;2022-10-22T15:40:43;20.67;61.70
69208;SHT31;56321;47.662;8.878;2022-10-22T15:43:09;20.58;62.30
69208;SHT31;56321;47.662;8.878;2022-10-22T15:45:34;20.47;62.72
69208;SHT31;56321;47.662;8.878;2022-10-22T15:48:00;20.37;63.25
69208;SHT31;56321;47.662;8.878;2022-10-22T15:50:25;20.27;63.50
69208;SHT31;56321;47.662;8.878;2022-10-22T15:52:50;20.18;63.59
69208;SHT31;56321;47.662;8.878;2022-10-22T15:55:16;20.13;64.28
69208;SHT31;56321;47.662;8.878;2022-10-22T15:57:41;20.05;64.88
69208;SHT31;56321;47.662;8.878;2022-10-22T16:00:07;19.96;64.95
69208;SHT31;56321;47.662;8.878;2022-10-22T16:02:33;19.86;65.50
69208;SHT31;56321;47.662;8.878;2022-10-22T16:04:58;19.78;65.58
69208;SHT31;56321;47.662;8.878;2022-10-22T16:07:24;19.66;66.09
69208;SHT31;56321;47.662;8.878;2022-10-22T16:09:54;19.57;66.69
69208;SHT31;56321;47.662;8.878;2022-10-22T16:12:20;19.44;66.68
69208;SHT31;56321;47.662;8.878;2022-10-22T16:14:45;19.32;67.11
69208;SHT31;56321;47.662;8.878;2022-10-22T16:17:14;19.20;67.33
69208;SHT31;56321;47.662;8.878;2022-10-22T16:19:39;19.10;67.53
69208;SHT31;56321;47.662;8.878;2022-10-22T16:22:04;19.02;67.70
69208;SHT31;56321;47.662;8.878;2022-10-22T16:24:29;18.90;67.90
69208;SHT31;56321;47.662;8.878;2022-10-22T16:26:55;18.79;68.25
69208;SHT31;56321;47.662;8.878;2022-10-22T16:29:20;18.69;68.42
69208;SHT31;56321;47.662;8.878;2022-10-22T16:31:45;18.57;68.62
69208;SHT31;56321;47.662;8.878;2022-10-22T16:34:11;18.49;68.89
69208;SHT31;56321;47.662;8.878;2022-10-22T16:36:37;18.39;69.04
69208;SHT31;56321;47.662;8.878;2022-10-22T16:39:03;18.34;69.09
69208;SHT31;56321;47.662;8.878;2022-10-22T16:41:29;18.21;69.22
69208;SHT31;56321;47.662;8.878;2022-10-22T16:44:00;18.17;69.19
69208;SHT31;56321;47.662;8.878;2022-10-22T16:46:28;18.07;69.20
69208;SHT31;56321;47.662;8.878;2022-10-22T16:48:54;17.97;69.34
69208;SHT31;56321;47.662;8.878;2022-10-22T16:51:22;17.90;69.64
69208;SHT31;56321;47.662;8.878;2022-10-22T16:53:49;17.83;69.88
69208;SHT31;56321;47.662;8.878;2022-10-22T16:56:16;17.77;70.06
69208;SHT31;56321;47.662;8.878;2022-10-22T16:58:50;17.67;70.27
69208;SHT31;56321;47.662;8.878;2022-10-22T17:01:17;17.63;70.25
69208;SHT31;56321;47.662;8.878;2022-10-22T17:03:43;17.54;70.31
69208;SHT31;56321;47.662;8.878;2022-10-22T17:06:10;17.50;70.36
69208;SHT31;56321;47.662;8.878;2022-10-22T17:08:36;17.43;70.42
69208;SHT31;56321;47.662;8.878;2022-10-22T17:11:16;17.36;70.56
69208;SHT31;56321;47.662;8.878;2022-10-22T17:13:43;17.31;70.50
69208;SHT31;56321;47.662;8.878;2022-10-22T17:16:10;17.22;70.43
69208;SHT31;56321;47.662;8.878;2022-10-22T17:18:38;17.14;70.56
69208;SHT31;56321;47.662;8.878;2022-10-22T17:21:05;17.05;70.73
69208;SHT31;56321;47.662;8.878;2022-10-22T17:23:31;17.04;70.92
69208;SHT31;56321;47.662;8.878;2022-10-22T17:26:02;16.96;71.03
69208;SHT31;56321;47.662;8.878;2022-10-22T17:28:30;16.92;71.06